ADDS METAR Data INFO
IDs: Format: Raw Decoded Include TAF

Data at: 0309 UTC 17 Jan 2018

KAUS 170253Z 35011KT 10SM OVC080 M03/M11 A3073 RMK AO2 SLP419 T10331111 51018 $